sensor_id;sensor_type;location;lat;lon;timestamp;P1;durP1;ratioP1;P2;durP2;ratioP2
58470;SDS011;44258;51.288;12.068;2023-11-19T00:00:09;7.10;;;2.28;;
58470;SDS011;44258;51.288;12.068;2023-11-19T00:02:39;6.35;;;2.60;;
58470;SDS011;44258;51.288;12.068;2023-11-19T00:05:12;7.65;;;2.47;;
58470;SDS011;44258;51.288;12.068;2023-11-19T00:07:40;4.07;;;2.15;;
58470;SDS011;44258;51.288;12.068;2023-11-19T00:10:08;4.72;;;2.00;;
58470;SDS011;44258;51.288;12.068;2023-11-19T00:12:36;9.95;;;2.10;;
58470;SDS011;44258;51.288;12.068;2023-11-19T00:15:05;6.25;;;2.30;;
58470;SDS011;44258;51.288;12.068;2023-11-19T00:17:36;5.10;;;2.13;;
58470;SDS011;44258;51.288;12.068;2023-11-19T00:20:04;5.05;;;1.98;;
58470;SDS011;44258;51.288;12.068;2023-11-19T00:22:32;5.68;;;2.30;;
58470;SDS011;44258;51.288;12.068;2023-11-19T00:24:59;4.65;;;1.92;;
58470;SDS011;44258;51.288;12.068;2023-11-19T00:27:26;6.88;;;2.63;;
58470;SDS011;44258;51.288;12.068;2023-11-19T00:29:53;6.03;;;2.40;;
58470;SDS011;44258;51.288;12.068;2023-11-19T00:32:21;7.78;;;2.60;;
58470;SDS011;44258;51.288;12.068;2023-11-19T00:34:48;5.80;;;2.35;;
58470;SDS011;44258;51.288;12.068;2023-11-19T00:37:15;5.07;;;2.03;;
58470;SDS011;44258;51.288;12.068;2023-11-19T00:39:42;6.63;;;2.45;;
58470;SDS011;44258;51.288;12.068;2023-11-19T00:42:11;6.85;;;2.65;;
58470;SDS011;44258;51.288;12.068;2023-11-19T00:44:38;6.82;;;2.60;;
58470;SDS011;44258;51.288;12.068;2023-11-19T00:47:07;6.88;;;2.80;;
58470;SDS011;44258;51.288;12.068;2023-11-19T00:49:35;7.07;;;2.95;;
58470;SDS011;44258;51.288;12.068;2023-11-19T00:52:02;5.70;;;2.30;;
58470;SDS011;44258;51.288;12.068;2023-11-19T00:54:29;6.55;;;2.47;;
58470;SDS011;44258;51.288;12.068;2023-11-19T00:56:56;7.70;;;2.72;;
58470;SDS011;44258;51.288;12.068;2023-11-19T00:59:23;7.38;;;2.53;;
58470;SDS011;44258;51.288;12.068;2023-11-19T01:01:50;3.80;;;1.73;;
58470;SDS011;44258;51.288;12.068;2023-11-19T01:04:18;7.13;;;2.47;;
58470;SDS011;44258;51.288;12.068;2023-11-19T01:06:48;9.20;;;2.78;;
58470;SDS011;44258;51.288;12.068;2023-11-19T01:09:15;6.07;;;2.42;;
58470;SDS011;44258;51.288;12.068;2023-11-19T01:11:41;6.45;;;2.67;;
58470;SDS011;44258;51.288;12.068;2023-11-19T01:14:08;4.63;;;2.28;;
58470;SDS011;44258;51.288;12.068;2023-11-19T01:16:35;7.78;;;2.75;;
58470;SDS011;44258;51.288;12.068;2023-11-19T01:19:02;6.80;;;2.35;;
58470;SDS011;44258;51.288;12.068;2023-11-19T01:21:30;6.00;;;2.10;;
58470;SDS011;44258;51.288;12.068;2023-11-19T01:24:00;4.97;;;2.08;;
58470;SDS011;44258;51.288;12.068;2023-11-19T01:26:29;5.93;;;2.30;;
58470;SDS011;44258;51.288;12.068;2023-11-19T01:28:56;5.32;;;2.33;;
58470;SDS011;44258;51.288;12.068;2023-11-19T01:31:22;4.38;;;1.88;;
58470;SDS011;44258;51.288;12.068;2023-11-19T01:33:49;5.55;;;1.88;;
58470;SDS011;44258;51.288;12.068;2023-11-19T01:36:16;6.05;;;2.42;;
58470;SDS011;44258;51.288;12.068;2023-11-19T01:38:43;5.22;;;1.90;;
58470;SDS011;44258;51.288;12.068;2023-11-19T01:41:11;6.50;;;2.28;;
58470;SDS011;44258;51.288;12.068;2023-11-19T01:43:38;2.78;;;1.50;;
58470;SDS011;44258;51.288;12.068;2023-11-19T01:46:07;4.38;;;1.80;;
58470;SDS011;44258;51.288;12.068;2023-11-19T01:48:36;5.30;;;1.95;;
58470;SDS011;44258;51.288;12.068;2023-11-19T01:51:08;5.82;;;2.03;;
58470;SDS011;44258;51.288;12.068;2023-11-19T01:53:35;3.78;;;1.75;;
58470;SDS011;44258;51.288;12.068;2023-11-19T01:56:05;4.03;;;1.80;;
58470;SDS011;44258;51.288;12.068;2023-11-19T01:58:41;5.43;;;1.67;;
58470;SDS011;44258;51.288;12.068;2023-11-19T02:01:10;4.22;;;1.85;;
58470;SDS011;44258;51.288;12.068;2023-11-19T02:03:37;3.80;;;1.80;;
58470;SDS011;44258;51.288;12.068;2023-11-19T02:06:05;4.80;;;1.67;;
58470;SDS011;44258;51.288;12.068;2023-11-19T02:08:37;5.18;;;1.90;;
58470;SDS011;44258;51.288;12.068;2023-11-19T02:11:04;4.30;;;1.90;;
58470;SDS011;44258;51.288;12.068;2023-11-19T02:13:33;4.22;;;1.50;;
58470;SDS011;44258;51.288;12.068;2023-11-19T02:16:01;2.92;;;1.45;;
58470;SDS011;44258;51.288;12.068;2023-11-19T02:18:28;3.55;;;1.42;;
58470;SDS011;44258;51.288;12.068;2023-11-19T02:20:55;5.50;;;2.00;;
58470;SDS011;44258;51.288;12.068;2023-11-19T02:23:23;3.03;;;1.33;;
58470;SDS011;44258;51.288;12.068;2023-11-19T02:25:54;3.67;;;1.40;;
58470;SDS011;44258;51.288;12.068;2023-11-19T02:28:31;3.95;;;1.80;;
58470;SDS011;44258;51.288;12.068;2023-11-19T02:30:59;3.38;;;1.42;;
58470;SDS011;44258;51.288;12.068;2023-11-19T02:33:26;3.53;;;1.27;;
58470;SDS011;44258;51.288;12.068;2023-11-19T02:35:53;4.22;;;1.52;;
58470;SDS011;44258;51.288;12.068;2023-11-19T02:38:19;3.78;;;1.30;;
58470;SDS011;44258;51.288;12.068;2023-11-19T02:40:48;2.55;;;1.30;;
58470;SDS011;44258;51.288;12.068;2023-11-19T02:43:18;3.90;;;1.38;;
58470;SDS011;44258;51.288;12.068;2023-11-19T02:45:48;3.63;;;1.25;;
58470;SDS011;44258;51.288;12.068;2023-11-19T02:48:15;2.58;;;1.30;;
58470;SDS011;44258;51.288;12.068;2023-11-19T02:50:44;2.83;;;1.25;;
58470;SDS011;44258;51.288;12.068;2023-11-19T02:53:12;2.50;;;1.20;;
58470;SDS011;44258;51.288;12.068;2023-11-19T02:55:39;3.42;;;1.27;;
58470;SDS011;44258;51.288;12.068;2023-11-19T02:58:06;3.17;;;1.45;;
58470;SDS011;44258;51.288;12.068;2023-11-19T03:00:45;2.20;;;1.17;;
58470;SDS011;44258;51.288;12.068;2023-11-19T03:03:18;1.95;;;0.80;;
58470;SDS011;44258;51.288;12.068;2023-11-19T03:05:45;2.22;;;0.98;;
58470;SDS011;44258;51.288;12.068;2023-11-19T03:08:13;2.08;;;1.08;;
58470;SDS011;44258;51.288;12.068;2023-11-19T03:10:41;2.85;;;1.00;;
58470;SDS011;44258;51.288;12.068;2023-11-19T03:13:10;1.70;;;0.95;;
58470;SDS011;44258;51.288;12.068;2023-11-19T03:15:39;1.80;;;0.98;;
58470;SDS011;44258;51.288;12.068;2023-11-19T03:18:07;1.77;;;0.90;;
58470;SDS011;44258;51.288;12.068;2023-11-19T03:20:34;1.20;;;0.60;;
58470;SDS011;44258;51.288;12.068;2023-11-19T03:23:01;1.20;;;0.70;;
58470;SDS011;44258;51.288;12.068;2023-11-19T03:25:28;1.73;;;0.70;;
58470;SDS011;44258;51.288;12.068;2023-11-19T03:27:59;1.55;;;0.50;;
58470;SDS011;44258;51.288;12.068;2023-11-19T03:30:26;1.52;;;0.73;;
58470;SDS011;44258;51.288;12.068;2023-11-19T03:32:54;1.58;;;0.80;;
58470;SDS011;44258;51.288;12.068;2023-11-19T03:35:22;1.60;;;0.50;;
58470;SDS011;44258;51.288;12.068;2023-11-19T03:37:49;2.15;;;0.65;;
58470;SDS011;44258;51.288;12.068;2023-11-19T03:40:17;1.27;;;0.30;;
58470;SDS011;44258;51.288;12.068;2023-11-19T03:42:44;1.02;;;0.52;;
58470;SDS011;44258;51.288;12.068;2023-11-19T03:45:11;0.52;;;0.40;;
58470;SDS011;44258;51.288;12.068;2023-11-19T03:47:38;1.25;;;0.63;;
58470;SDS011;44258;51.288;12.068;2023-11-19T03:50:05;1.80;;;0.60;;
58470;SDS011;44258;51.288;12.068;2023-11-19T03:52:35;0.85;;;0.40;;
58470;SDS011;44258;51.288;12.068;2023-11-19T03:55:02;0.77;;;0.52;;
58470;SDS011;44258;51.288;12.068;2023-11-19T03:57:30;0.65;;;0.38;;
58470;SDS011;44258;51.288;12.068;2023-11-19T03:59:57;0.90;;;0.63;;
58470;SDS011;44258;51.288;12.068;2023-11-19T04:02:24;1.58;;;0.43;;
58470;SDS011;44258;51.288;12.068;2023-11-19T04:04:53;1.60;;;0.63;;
58470;SDS011;44258;51.288;12.068;2023-11-19T04:07:21;0.98;;;0.47;;
58470;SDS011;44258;51.288;12.068;2023-11-19T04:09:49;0.32;;;0.30;;
58470;SDS011;44258;51.288;12.068;2023-11-19T04:12:16;1.45;;;0.60;;
58470;SDS011;44258;51.288;12.068;2023-11-19T04:14:42;0.98;;;0.60;;
58470;SDS011;44258;51.288;12.068;2023-11-19T04:17:09;1.80;;;0.55;;
58470;SDS011;44258;51.288;12.068;2023-11-19T04:19:36;1.38;;;0.57;;
58470;SDS011;44258;51.288;12.068;2023-11-19T04:22:06;0.82;;;0.60;;
58470;SDS011;44258;51.288;12.068;2023-11-19T04:24:34;1.35;;;0.52;;
58470;SDS011;44258;51.288;12.068;2023-11-19T04:27:02;1.23;;;0.52;;
58470;SDS011;44258;51.288;12.068;2023-11-19T04:29:30;1.00;;;0.50;;
58470;SDS011;44258;51.288;12.068;2023-11-19T04:31:57;1.05;;;0.55;;
58470;SDS011;44258;51.288;12.068;2023-11-19T04:34:24;0.50;;;0.43;;
58470;SDS011;44258;51.288;12.068;2023-11-19T04:36:51;1.08;;;0.50;;
58470;SDS011;44258;51.288;12.068;2023-11-19T04:39:18;0.35;;;0.30;;
58470;SDS011;44258;51.288;12.068;2023-11-19T04:41:48;1.77;;;0.77;;
58470;SDS011;44258;51.288;12.068;2023-11-19T04:44:16;1.15;;;0.60;;
58470;SDS011;44258;51.288;12.068;2023-11-19T04:46:44;1.13;;;0.30;;
58470;SDS011;44258;51.288;12.068;2023-11-19T04:49:11;0.88;;;0.45;;
58470;SDS011;44258;51.288;12.068;2023-11-19T04:51:39;1.20;;;0.35;;
58470;SDS011;44258;51.288;12.068;2023-11-19T04:54:07;4.03;;;1.02;;
58470;SDS011;44258;51.288;12.068;2023-11-19T04:56:34;0.50;;;0.40;;
58470;SDS011;44258;51.288;12.068;2023-11-19T04:59:01;1.63;;;0.50;;
58470;SDS011;44258;51.288;12.068;2023-11-19T05:01:29;1.23;;;0.50;;
58470;SDS011;44258;51.288;12.068;2023-11-19T05:03:56;0.55;;;0.30;;
58470;SDS011;44258;51.288;12.068;2023-11-19T05:06:25;2.30;;;0.63;;
58470;SDS011;44258;51.288;12.068;2023-11-19T05:08:53;1.17;;;0.50;;
58470;SDS011;44258;51.288;12.068;2023-11-19T05:11:20;2.00;;;0.85;;
58470;SDS011;44258;51.288;12.068;2023-11-19T05:13:46;0.68;;;0.45;;
58470;SDS011;44258;51.288;12.068;2023-11-19T05:16:13;0.32;;;0.32;;
58470;SDS011;44258;51.288;12.068;2023-11-19T05:18:41;0.70;;;0.30;;
58470;SDS011;44258;51.288;12.068;2023-11-19T05:21:08;0.40;;;0.38;;
58470;SDS011;44258;51.288;12.068;2023-11-19T05:23:35;0.22;;;0.20;;
58470;SDS011;44258;51.288;12.068;2023-11-19T05:26:02;3.03;;;0.40;;
58470;SDS011;44258;51.288;12.068;2023-11-19T05:28:29;1.02;;;0.43;;
58470;SDS011;44258;51.288;12.068;2023-11-19T05:30:56;0.30;;;0.30;;
58470;SDS011;44258;51.288;12.068;2023-11-19T05:33:23;0.30;;;0.30;;
58470;SDS011;44258;51.288;12.068;2023-11-19T05:35:52;0.57;;;0.50;;
58470;SDS011;44258;51.288;12.068;2023-11-19T05:38:18;0.45;;;0.32;;
58470;SDS011;44258;51.288;12.068;2023-11-19T05:40:46;0.40;;;0.30;;
58470;SDS011;44258;51.288;12.068;2023-11-19T05:43:14;0.50;;;0.35;;
58470;SDS011;44258;51.288;12.068;2023-11-19T05:45:41;1.02;;;0.30;;
58470;SDS011;44258;51.288;12.068;2023-11-19T05:48:08;1.92;;;0.60;;
58470;SDS011;44258;51.288;12.068;2023-11-19T05:50:35;0.20;;;0.20;;
58470;SDS011;44258;51.288;12.068;2023-11-19T05:53:04;0.82;;;0.30;;
58470;SDS011;44258;51.288;12.068;2023-11-19T05:55:34;0.57;;;0.32;;
58470;SDS011;44258;51.288;12.068;2023-11-19T05:58:01;0.65;;;0.40;;
58470;SDS011;44258;51.288;12.068;2023-11-19T06:00:31;1.20;;;0.47;;
58470;SDS011;44258;51.288;12.068;2023-11-19T06:03:00;0.50;;;0.30;;
58470;SDS011;44258;51.288;12.068;2023-11-19T06:05:30;1.17;;;0.50;;
58470;SDS011;44258;51.288;12.068;2023-11-19T06:07:57;1.13;;;0.40;;
58470;SDS011;44258;51.288;12.068;2023-11-19T06:10:25;0.75;;;0.40;;
58470;SDS011;44258;51.288;12.068;2023-11-19T06:12:55;0.70;;;0.32;;
58470;SDS011;44258;51.288;12.068;2023-11-19T06:15:24;0.82;;;0.30;;
58470;SDS011;44258;51.288;12.068;2023-11-19T06:17:51;0.10;;;0.10;;
58470;SDS011;44258;51.288;12.068;2023-11-19T06:20:18;1.23;;;0.40;;
58470;SDS011;44258;51.288;12.068;2023-11-19T06:22:45;1.08;;;0.47;;
58470;SDS011;44258;51.288;12.068;2023-11-19T06:25:12;0.70;;;0.40;;
58470;SDS011;44258;51.288;12.068;2023-11-19T06:27:41;0.57;;;0.40;;
58470;SDS011;44258;51.288;12.068;2023-11-19T06:30:09;1.63;;;0.40;;
58470;SDS011;44258;51.288;12.068;2023-11-19T06:32:37;1.73;;;0.50;;
58470;SDS011;44258;51.288;12.068;2023-11-19T06:35:05;0.57;;;0.40;;
58470;SDS011;44258;51.288;12.068;2023-11-19T06:37:34;0.22;;;0.15;;
58470;SDS011;44258;51.288;12.068;2023-11-19T06:40:01;1.45;;;0.40;;
58470;SDS011;44258;51.288;12.068;2023-11-19T06:42:30;0.47;;;0.30;;
58470;SDS011;44258;51.288;12.068;2023-11-19T06:44:58;1.10;;;0.20;;
58470;SDS011;44258;51.288;12.068;2023-11-19T06:47:25;1.27;;;0.40;;
58470;SDS011;44258;51.288;12.068;2023-11-19T06:49:52;0.50;;;0.40;;
58470;SDS011;44258;51.288;12.068;2023-11-19T06:52:19;0.43;;;0.30;;
58470;SDS011;44258;51.288;12.068;2023-11-19T06:54:46;0.30;;;0.20;;
58470;SDS011;44258;51.288;12.068;2023-11-19T06:57:13;1.20;;;0.40;;
58470;SDS011;44258;51.288;12.068;2023-11-19T06:59:40;0.88;;;0.40;;
58470;SDS011;44258;51.288;12.068;2023-11-19T07:02:08;1.00;;;0.55;;
58470;SDS011;44258;51.288;12.068;2023-11-19T07:04:35;1.40;;;0.43;;
58470;SDS011;44258;51.288;12.068;2023-11-19T07:07:02;0.88;;;0.40;;
58470;SDS011;44258;51.288;12.068;2023-11-19T07:09:30;1.75;;;0.63;;
58470;SDS011;44258;51.288;12.068;2023-11-19T07:11:58;9.88;;;0.93;;
58470;SDS011;44258;51.288;12.068;2023-11-19T07:14:25;1.65;;;0.60;;
58470;SDS011;44258;51.288;12.068;2023-11-19T07:16:52;1.90;;;0.77;;
58470;SDS011;44258;51.288;12.068;2023-11-19T07:19:20;2.13;;;0.88;;
58470;SDS011;44258;51.288;12.068;2023-11-19T07:21:47;2.38;;;0.50;;
58470;SDS011;44258;51.288;12.068;2023-11-19T07:24:14;1.45;;;0.80;;
58470;SDS011;44258;51.288;12.068;2023-11-19T07:26:42;1.70;;;0.82;;
58470;SDS011;44258;51.288;12.068;2023-11-19T07:29:09;1.70;;;0.60;;
58470;SDS011;44258;51.288;12.068;2023-11-19T07:31:36;1.65;;;0.70;;
58470;SDS011;44258;51.288;12.068;2023-11-19T07:34:03;1.23;;;0.55;;
58470;SDS011;44258;51.288;12.068;2023-11-19T07:36:31;1.30;;;0.30;;
58470;SDS011;44258;51.288;12.068;2023-11-19T07:38:58;1.63;;;0.50;;
58470;SDS011;44258;51.288;12.068;2023-11-19T07:41:25;1.05;;;0.40;;
58470;SDS011;44258;51.288;12.068;2023-11-19T07:43:54;0.50;;;0.40;;
58470;SDS011;44258;51.288;12.068;2023-11-19T07:46:21;1.67;;;0.60;;
58470;SDS011;44258;51.288;12.068;2023-11-19T07:48:48;0.80;;;0.40;;
58470;SDS011;44258;51.288;12.068;2023-11-19T07:51:15;0.90;;;0.50;;
58470;SDS011;44258;51.288;12.068;2023-11-19T07:53:45;1.38;;;0.50;;
58470;SDS011;44258;51.288;12.068;2023-11-19T07:56:12;1.45;;;0.47;;
58470;SDS011;44258;51.288;12.068;2023-11-19T07:58:39;1.38;;;0.60;;
58470;SDS011;44258;51.288;12.068;2023-11-19T08:01:05;0.95;;;0.73;;
58470;SDS011;44258;51.288;12.068;2023-11-19T08:03:33;1.05;;;0.50;;
58470;SDS011;44258;51.288;12.068;2023-11-19T08:06:00;4.68;;;1.38;;
58470;SDS011;44258;51.288;12.068;2023-11-19T08:08:27;0.90;;;0.60;;
58470;SDS011;44258;51.288;12.068;2023-11-19T08:10:56;1.77;;;0.68;;
58470;SDS011;44258;51.288;12.068;2023-11-19T08:13:24;1.35;;;0.52;;
58470;SDS011;44258;51.288;12.068;2023-11-19T08:15:51;0.98;;;0.70;;
58470;SDS011;44258;51.288;12.068;2023-11-19T08:18:18;1.58;;;0.70;;
58470;SDS011;44258;51.288;12.068;2023-11-19T08:20:45;0.95;;;0.47;;
58470;SDS011;44258;51.288;12.068;2023-11-19T08:23:17;1.50;;;0.70;;
58470;SDS011;44258;51.288;12.068;2023-11-19T08:25:44;1.52;;;0.75;;
58470;SDS011;44258;51.288;12.068;2023-11-19T08:28:12;2.30;;;0.90;;
58470;SDS011;44258;51.288;12.068;2023-11-19T08:30:39;1.30;;;0.80;;
58470;SDS011;44258;51.288;12.068;2023-11-19T08:33:06;2.28;;;0.80;;
58470;SDS011;44258;51.288;12.068;2023-11-19T08:35:33;1.42;;;0.60;;
58470;SDS011;44258;51.288;12.068;2023-11-19T08:37:59;1.95;;;0.55;;
58470;SDS011;44258;51.288;12.068;2023-11-19T08:40:27;1.35;;;0.85;;
58470;SDS011;44258;51.288;12.068;2023-11-19T08:42:55;1.02;;;0.43;;
58470;SDS011;44258;51.288;12.068;2023-11-19T08:45:23;1.38;;;0.65;;
58470;SDS011;44258;51.288;12.068;2023-11-19T08:47:49;1.85;;;0.68;;
58470;SDS011;44258;51.288;12.068;2023-11-19T08:50:16;2.95;;;0.95;;
58470;SDS011;44258;51.288;12.068;2023-11-19T08:52:43;1.88;;;0.95;;
58470;SDS011;44258;51.288;12.068;2023-11-19T08:55:10;4.90;;;1.67;;
58470;SDS011;44258;51.288;12.068;2023-11-19T08:57:38;6.22;;;1.20;;
58470;SDS011;44258;51.288;12.068;2023-11-19T09:00:06;6.18;;;2.47;;
58470;SDS011;44258;51.288;12.068;2023-11-19T09:02:35;3.17;;;1.55;;
58470;SDS011;44258;51.288;12.068;2023-11-19T09:05:02;4.50;;;1.45;;
58470;SDS011;44258;51.288;12.068;2023-11-19T09:07:29;3.55;;;1.48;;
58470;SDS011;44258;51.288;12.068;2023-11-19T09:09:55;3.45;;;0.90;;
58470;SDS011;44258;51.288;12.068;2023-11-19T09:12:22;2.35;;;1.20;;
58470;SDS011;44258;51.288;12.068;2023-11-19T09:14:49;3.15;;;0.90;;
58470;SDS011;44258;51.288;12.068;2023-11-19T09:17:15;2.67;;;1.20;;
58470;SDS011;44258;51.288;12.068;2023-11-19T09:19:45;3.15;;;1.02;;
58470;SDS011;44258;51.288;12.068;2023-11-19T09:22:11;2.45;;;0.93;;
58470;SDS011;44258;51.288;12.068;2023-11-19T09:24:38;2.63;;;1.00;;
58470;SDS011;44258;51.288;12.068;2023-11-19T09:27:05;3.88;;;1.13;;
58470;SDS011;44258;51.288;12.068;2023-11-19T09:29:32;2.95;;;1.15;;
58470;SDS011;44258;51.288;12.068;2023-11-19T09:31:59;2.80;;;1.00;;
58470;SDS011;44258;51.288;12.068;2023-11-19T09:34:26;4.63;;;1.10;;
58470;SDS011;44258;51.288;12.068;2023-11-19T09:36:54;4.00;;;1.25;;
58470;SDS011;44258;51.288;12.068;2023-11-19T09:39:21;2.42;;;1.15;;
58470;SDS011;44258;51.288;12.068;2023-11-19T09:41:48;3.15;;;1.40;;
58470;SDS011;44258;51.288;12.068;2023-11-19T09:44:15;5.13;;;1.60;;
58470;SDS011;44258;51.288;12.068;2023-11-19T09:46:44;3.70;;;1.30;;
58470;SDS011;44258;51.288;12.068;2023-11-19T09:49:12;3.45;;;1.65;;
58470;SDS011;44258;51.288;12.068;2023-11-19T09:51:40;2.92;;;1.20;;
58470;SDS011;44258;51.288;12.068;2023-11-19T09:54:08;2.47;;;1.00;;
58470;SDS011;44258;51.288;12.068;2023-11-19T09:56:37;4.55;;;1.83;;
58470;SDS011;44258;51.288;12.068;2023-11-19T09:59:05;2.63;;;1.02;;
58470;SDS011;44258;51.288;12.068;2023-11-19T10:01:32;3.13;;;1.30;;
58470;SDS011;44258;51.288;12.068;2023-11-19T10:04:01;4.18;;;1.60;;
58470;SDS011;44258;51.288;12.068;2023-11-19T10:06:32;3.72;;;1.40;;
58470;SDS011;44258;51.288;12.068;2023-11-19T10:08:59;3.65;;;1.10;;
58470;SDS011;44258;51.288;12.068;2023-11-19T10:11:28;3.17;;;1.20;;
58470;SDS011;44258;51.288;12.068;2023-11-19T10:13:55;4.05;;;1.27;;
58470;SDS011;44258;51.288;12.068;2023-11-19T10:16:28;4.25;;;1.30;;
58470;SDS011;44258;51.288;12.068;2023-11-19T10:18:58;3.55;;;1.27;;
58470;SDS011;44258;51.288;12.068;2023-11-19T10:21:25;4.15;;;1.67;;
58470;SDS011;44258;51.288;12.068;2023-11-19T10:23:53;5.55;;;1.67;;
58470;SDS011;44258;51.288;12.068;2023-11-19T10:26:22;1.45;;;1.00;;
58470;SDS011;44258;51.288;12.068;2023-11-19T10:28:50;4.65;;;1.10;;
58470;SDS011;44258;51.288;12.068;2023-11-19T10:31:17;3.40;;;1.30;;
58470;SDS011;44258;51.288;12.068;2023-11-19T10:33:48;1.65;;;1.00;;
58470;SDS011;44258;51.288;12.068;2023-11-19T10:36:14;5.45;;;1.30;;
58470;SDS011;44258;51.288;12.068;2023-11-19T10:38:51;3.05;;;1.00;;
58470;SDS011;44258;51.288;12.068;2023-11-19T10:41:26;6.10;;;1.55;;
58470;SDS011;44258;51.288;12.068;2023-11-19T10:43:55;4.82;;;1.30;;
58470;SDS011;44258;51.288;12.068;2023-11-19T10:46:21;3.95;;;1.40;;
58470;SDS011;44258;51.288;12.068;2023-11-19T10:48:48;6.18;;;1.90;;
58470;SDS011;44258;51.288;12.068;2023-11-19T10:51:18;8.32;;;1.95;;
58470;SDS011;44258;51.288;12.068;2023-11-19T10:53:46;9.80;;;2.38;;
58470;SDS011;44258;51.288;12.068;2023-11-19T10:56:16;6.82;;;1.70;;
58470;SDS011;44258;51.288;12.068;2023-11-19T10:58:47;5.78;;;1.48;;
58470;SDS011;44258;51.288;12.068;2023-11-19T11:01:19;5.78;;;1.73;;
58470;SDS011;44258;51.288;12.068;2023-11-19T11:03:47;8.40;;;1.65;;
58470;SDS011;44258;51.288;12.068;2023-11-19T11:06:16;10.45;;;2.72;;
58470;SDS011;44258;51.288;12.068;2023-11-19T11:08:44;6.22;;;2.00;;
58470;SDS011;44258;51.288;12.068;2023-11-19T11:11:13;6.65;;;1.90;;
58470;SDS011;44258;51.288;12.068;2023-11-19T11:13:42;7.18;;;1.63;;
58470;SDS011;44258;51.288;12.068;2023-11-19T11:16:10;7.95;;;1.90;;
58470;SDS011;44258;51.288;12.068;2023-11-19T11:18:38;8.15;;;1.50;;
58470;SDS011;44258;51.288;12.068;2023-11-19T11:21:06;6.90;;;2.25;;
58470;SDS011;44258;51.288;12.068;2023-11-19T11:23:44;9.80;;;2.33;;
58470;SDS011;44258;51.288;12.068;2023-11-19T11:29:20;4.88;;;1.80;;
58470;SDS011;44258;51.288;12.068;2023-11-19T11:31:53;10.45;;;2.03;;
58470;SDS011;44258;51.288;12.068;2023-11-19T11:34:34;10.35;;;2.17;;
58470;SDS011;44258;51.288;12.068;2023-11-19T11:37:21;9.38;;;1.95;;
58470;SDS011;44258;51.288;12.068;2023-11-19T11:42:31;8.85;;;1.95;;
58470;SDS011;44258;51.288;12.068;2023-11-19T11:50:46;8.13;;;2.00;;
58470;SDS011;44258;51.288;12.068;2023-11-19T11:53:19;11.60;;;2.60;;
58470;SDS011;44258;51.288;12.068;2023-11-19T11:55:56;8.55;;;1.63;;
58470;SDS011;44258;51.288;12.068;2023-11-19T11:58:25;12.95;;;2.58;;
58470;SDS011;44258;51.288;12.068;2023-11-19T12:00:56;7.70;;;2.15;;
58470;SDS011;44258;51.288;12.068;2023-11-19T12:03:26;7.90;;;2.08;;
58470;SDS011;44258;51.288;12.068;2023-11-19T12:05:55;10.63;;;2.63;;
58470;SDS011;44258;51.288;12.068;2023-11-19T12:08:24;8.05;;;1.73;;
58470;SDS011;44258;51.288;12.068;2023-11-19T12:10:53;12.10;;;2.13;;
58470;SDS011;44258;51.288;12.068;2023-11-19T12:13:23;11.02;;;2.55;;
58470;SDS011;44258;51.288;12.068;2023-11-19T12:18:36;13.13;;;1.90;;
58470;SDS011;44258;51.288;12.068;2023-11-19T12:21:07;10.57;;;1.85;;
58470;SDS011;44258;51.288;12.068;2023-11-19T12:23:35;9.50;;;1.98;;
58470;SDS011;44258;51.288;12.068;2023-11-19T12:26:20;6.15;;;1.90;;
58470;SDS011;44258;51.288;12.068;2023-11-19T12:28:58;10.50;;;3.35;;
58470;SDS011;44258;51.288;12.068;2023-11-19T12:31:26;9.02;;;2.03;;
58470;SDS011;44258;51.288;12.068;2023-11-19T12:33:54;9.27;;;2.08;;
58470;SDS011;44258;51.288;12.068;2023-11-19T12:36:22;6.07;;;1.95;;
58470;SDS011;44258;51.288;12.068;2023-11-19T12:38:49;10.82;;;2.63;;
58470;SDS011;44258;51.288;12.068;2023-11-19T12:41:16;9.52;;;1.88;;
58470;SDS011;44258;51.288;12.068;2023-11-19T12:43:45;11.90;;;2.20;;
58470;SDS011;44258;51.288;12.068;2023-11-19T12:46:19;10.95;;;3.00;;
58470;SDS011;44258;51.288;12.068;2023-11-19T12:48:46;7.18;;;1.70;;
58470;SDS011;44258;51.288;12.068;2023-11-19T12:51:14;12.10;;;2.10;;
58470;SDS011;44258;51.288;12.068;2023-11-19T12:53:48;9.57;;;2.13;;
58470;SDS011;44258;51.288;12.068;2023-11-19T12:56:18;11.95;;;2.45;;
58470;SDS011;44258;51.288;12.068;2023-11-19T12:58:44;8.48;;;1.85;;
58470;SDS011;44258;51.288;12.068;2023-11-19T13:01:15;10.13;;;2.10;;
58470;SDS011;44258;51.288;12.068;2023-11-19T13:03:43;11.85;;;3.00;;
58470;SDS011;44258;51.288;12.068;2023-11-19T13:06:10;10.98;;;1.90;;
58470;SDS011;44258;51.288;12.068;2023-11-19T13:08:42;9.15;;;2.30;;
58470;SDS011;44258;51.288;12.068;2023-11-19T13:11:11;7.40;;;2.33;;
58470;SDS011;44258;51.288;12.068;2023-11-19T13:13:54;10.95;;;2.33;;
58470;SDS011;44258;51.288;12.068;2023-11-19T13:16:22;10.57;;;1.77;;
58470;SDS011;44258;51.288;12.068;2023-11-19T13:18:49;7.53;;;2.10;;
58470;SDS011;44258;51.288;12.068;2023-11-19T13:21:16;8.18;;;1.88;;
58470;SDS011;44258;51.288;12.068;2023-11-19T13:23:43;12.27;;;2.25;;
58470;SDS011;44258;51.288;12.068;2023-11-19T13:26:11;11.13;;;2.30;;
58470;SDS011;44258;51.288;12.068;2023-11-19T13:28:39;12.82;;;2.08;;
58470;SDS011;44258;51.288;12.068;2023-11-19T13:31:06;8.95;;;1.80;;
58470;SDS011;44258;51.288;12.068;2023-11-19T13:33:33;11.75;;;2.00;;
58470;SDS011;44258;51.288;12.068;2023-11-19T13:36:01;7.70;;;2.97;;
58470;SDS011;44258;51.288;12.068;2023-11-19T13:38:31;11.68;;;2.47;;
58470;SDS011;44258;51.288;12.068;2023-11-19T13:40:57;9.13;;;2.30;;
58470;SDS011;44258;51.288;12.068;2023-11-19T13:43:26;6.00;;;1.80;;
58470;SDS011;44258;51.288;12.068;2023-11-19T13:45:54;10.52;;;2.70;;
58470;SDS011;44258;51.288;12.068;2023-11-19T13:48:21;10.93;;;2.10;;
58470;SDS011;44258;51.288;12.068;2023-11-19T13:50:48;8.55;;;2.22;;
58470;SDS011;44258;51.288;12.068;2023-11-19T13:53:14;9.32;;;1.63;;
58470;SDS011;44258;51.288;12.068;2023-11-19T13:55:41;8.60;;;1.95;;
58470;SDS011;44258;51.288;12.068;2023-11-19T13:58:09;8.30;;;1.83;;
58470;SDS011;44258;51.288;12.068;2023-11-19T14:00:37;9.52;;;2.75;;
58470;SDS011;44258;51.288;12.068;2023-11-19T14:03:04;12.90;;;2.72;;
58470;SDS011;44258;51.288;12.068;2023-11-19T14:05:31;8.73;;;1.88;;
58470;SDS011;44258;51.288;12.068;2023-11-19T14:07:58;9.48;;;2.83;;
58470;SDS011;44258;51.288;12.068;2023-11-19T14:10:26;11.02;;;2.25;;
58470;SDS011;44258;51.288;12.068;2023-11-19T14:12:54;11.23;;;2.13;;
58470;SDS011;44258;51.288;12.068;2023-11-19T14:15:21;10.38;;;2.15;;
58470;SDS011;44258;51.288;12.068;2023-11-19T14:17:49;8.23;;;2.00;;
58470;SDS011;44258;51.288;12.068;2023-11-19T14:20:16;11.30;;;2.50;;
58470;SDS011;44258;51.288;12.068;2023-11-19T14:22:43;8.82;;;2.10;;
58470;SDS011;44258;51.288;12.068;2023-11-19T14:25:13;8.63;;;2.05;;
58470;SDS011;44258;51.288;12.068;2023-11-19T14:27:40;8.85;;;2.20;;
58470;SDS011;44258;51.288;12.068;2023-11-19T14:30:08;8.27;;;2.20;;
58470;SDS011;44258;51.288;12.068;2023-11-19T14:32:36;9.32;;;2.15;;
58470;SDS011;44258;51.288;12.068;2023-11-19T14:35:05;9.98;;;2.30;;
58470;SDS011;44258;51.288;12.068;2023-11-19T14:37:33;12.98;;;2.33;;
58470;SDS011;44258;51.288;12.068;2023-11-19T14:40:00;5.18;;;1.70;;
58470;SDS011;44258;51.288;12.068;2023-11-19T14:42:29;10.02;;;2.20;;
58470;SDS011;44258;51.288;12.068;2023-11-19T14:44:56;10.82;;;2.83;;
58470;SDS011;44258;51.288;12.068;2023-11-19T14:47:22;11.95;;;2.60;;
58470;SDS011;44258;51.288;12.068;2023-11-19T14:49:49;9.55;;;2.67;;
58470;SDS011;44258;51.288;12.068;2023-11-19T14:52:18;10.23;;;2.30;;